createdAt,value
2022-09-29T00:00:57.706Z,72.40
2022-09-29T00:03:59.580Z,71.40
2022-09-29T00:07:01.458Z,73.40
2022-09-29T00:10:04.710Z,73.30
2022-09-29T00:13:06.643Z,73.20
2022-09-29T00:16:09.091Z,72.90
2022-09-29T00:19:10.988Z,71.60
2022-09-29T00:22:12.876Z,72.80
2022-09-29T00:25:14.805Z,71.50
2022-09-29T00:28:16.774Z,73.10
2022-09-29T00:31:18.774Z,73.80
2022-09-29T00:34:20.899Z,72.20
2022-09-29T00:37:22.843Z,71.30
2022-09-29T00:40:25.160Z,72.70
2022-09-29T00:43:55.975Z,73.70
2022-09-29T00:47:02.338Z,75.00
2022-09-29T00:50:09.615Z,74.10
2022-09-29T00:53:19.118Z,73.60
2022-09-29T00:56:23.167Z,74.50
2022-09-29T00:59:38.397Z,74.90
2022-09-29T01:02:47.044Z,74.90
2022-09-29T01:06:03.200Z,74.90
2022-09-29T01:09:16.092Z,75.00
2022-09-29T01:12:18.292Z,77.40
2022-09-29T01:15:20.290Z,76.40
2022-09-29T01:18:22.210Z,76.90
2022-09-29T01:21:33.552Z,77.30
2022-09-29T01:24:57.468Z,78.00
2022-09-29T01:28:17.976Z,78.80
2022-09-29T01:31:54.791Z,78.10
2022-09-29T01:35:17.773Z,79.20
2022-09-29T01:38:25.491Z,77.20
2022-09-29T01:41:46.149Z,76.70
2022-09-29T01:45:16.031Z,79.30
2022-09-29T01:48:21.473Z,79.70
2022-09-29T01:51:55.790Z,78.90
2022-09-29T01:55:07.232Z,80.30
2022-09-29T01:58:21.937Z,80.70
2022-09-29T02:01:25.601Z,81.30
2022-09-29T02:04:32.131Z,78.50
2022-09-29T02:07:37.031Z,78.90
2022-09-29T02:10:47.501Z,82.20
2022-09-29T02:13:55.235Z,82.90
2022-09-29T02:17:26.994Z,82.90
2022-09-29T02:20:28.857Z,81.30
2022-09-29T02:23:30.893Z,80.40
2022-09-29T02:26:34.559Z,80.10
2022-09-29T02:29:36.587Z,83.50
2022-09-29T02:32:38.505Z,84.40
2022-09-29T02:35:55.472Z,85.40
2022-09-29T02:39:07.418Z,88.90
2022-09-29T02:42:19.210Z,90.10
2022-09-29T02:45:43.065Z,90.10
2022-09-29T02:49:17.086Z,90.70
2022-09-29T02:52:51.021Z,92.80
2022-09-29T02:56:08.893Z,95.30
2022-09-29T02:59:15.058Z,93.00
2022-09-29T03:02:16.951Z,93.60
2022-09-29T03:05:20.277Z,93.90
2022-09-29T03:08:22.148Z,92.90
2022-09-29T03:11:24.042Z,92.90
2022-09-29T03:14:25.946Z,91.70
2022-09-29T03:17:27.793Z,92.00
2022-09-29T03:20:29.710Z,90.40
2022-09-29T03:23:31.641Z,91.80
2022-09-29T03:26:33.783Z,92.30
2022-09-29T03:29:36.576Z,92.00
2022-09-29T03:32:38.408Z,91.20
2022-09-29T03:35:44.228Z,92.00
2022-09-29T03:38:47.371Z,92.00
2022-09-29T03:41:49.209Z,91.30
2022-09-29T03:44:51.113Z,92.60
2022-09-29T03:47:53.040Z,91.40
2022-09-29T03:50:55.345Z,91.90
2022-09-29T03:53:57.278Z,91.10
2022-09-29T03:56:59.193Z,92.10
2022-09-29T04:00:01.295Z,92.00
2022-09-29T04:03:03.540Z,92.00
2022-09-29T04:06:05.592Z,92.00
2022-09-29T04:09:07.499Z,91.80
2022-09-29T04:12:09.512Z,91.60
2022-09-29T04:15:11.493Z,92.00
2022-09-29T04:18:13.409Z,92.00
2022-09-29T04:21:16.809Z,91.80
2022-09-29T04:24:18.721Z,91.50
2022-09-29T04:27:20.640Z,91.10
2022-09-29T04:30:22.543Z,90.80
2022-09-29T04:33:24.515Z,91.10
2022-09-29T04:36:26.368Z,91.50
2022-09-29T04:39:28.198Z,92.00
2022-09-29T04:42:30.097Z,91.80
2022-09-29T04:45:32.076Z,91.70
2022-09-29T04:48:36.032Z,91.70
2022-09-29T04:51:38.264Z,92.40
2022-09-29T04:54:40.263Z,92.50
2022-09-29T04:57:43.317Z,92.00
2022-09-29T05:00:45.170Z,92.70
2022-09-29T05:03:47.030Z,91.90
2022-09-29T05:06:49.045Z,91.80
2022-09-29T05:09:50.910Z,92.10
2022-09-29T05:12:53.231Z,93.20
2022-09-29T05:15:59.422Z,93.90
2022-09-29T05:19:02.517Z,93.90
2022-09-29T05:22:04.431Z,93.90
2022-09-29T05:25:09.129Z,94.00
2022-09-29T05:28:15.201Z,94.40
2022-09-29T05:31:17.922Z,93.90
2022-09-29T05:34:20.148Z,93.00
2022-09-29T05:37:21.970Z,93.30
2022-09-29T05:40:24.819Z,93.50
2022-09-29T05:43:26.700Z,92.40
2022-09-29T05:46:28.993Z,92.20
2022-09-29T05:49:33.456Z,92.50
2022-09-29T05:52:35.321Z,92.30
2022-09-29T05:55:38.108Z,92.40
2022-09-29T05:58:39.891Z,92.30
2022-09-29T06:01:41.741Z,94.20
2022-09-29T06:04:43.621Z,94.50
2022-09-29T06:07:45.384Z,94.70
2022-09-29T06:10:47.176Z,94.80
2022-09-29T06:13:49.623Z,94.70
2022-09-29T06:16:52.785Z,95.20
2022-09-29T06:19:54.678Z,94.70
2022-09-29T06:22:56.569Z,93.50
2022-09-29T06:26:01.660Z,91.50
2022-09-29T06:29:03.682Z,93.40
2022-09-29T06:32:06.974Z,94.70
2022-09-29T06:35:27.712Z,92.40
2022-09-29T06:38:29.485Z,92.10
2022-09-29T06:41:31.419Z,92.20
2022-09-29T06:44:33.297Z,89.10
2022-09-29T06:47:35.183Z,93.20
2022-09-29T06:50:36.984Z,92.30
2022-09-29T06:53:39.326Z,91.50
2022-09-29T06:56:41.305Z,89.90
2022-09-29T06:59:43.047Z,80.80
2022-09-29T07:02:47.874Z,77.60
2022-09-29T07:06:15.151Z,78.60
2022-09-29T07:09:15.995Z,74.50
2022-09-29T07:12:18.121Z,76.80
2022-09-29T07:15:19.951Z,68.40
2022-09-29T07:18:21.791Z,69.90
2022-09-29T07:21:23.615Z,63.90
2022-09-29T07:24:25.719Z,58.20
2022-09-29T07:27:27.689Z,56.70
2022-09-29T07:30:39.319Z,56.90
2022-09-29T07:33:43.008Z,59.50
2022-09-29T07:36:47.169Z,59.30
2022-09-29T07:39:48.949Z,61.90
2022-09-29T07:42:51.161Z,60.60
2022-09-29T07:45:52.994Z,61.10
2022-09-29T07:48:54.799Z,59.50
2022-09-29T07:51:56.783Z,57.60
2022-09-29T07:54:58.581Z,50.10
2022-09-29T07:58:01.781Z,39.70
2022-09-29T08:01:06.335Z,28.00
2022-09-29T08:04:08.753Z,24.90
2022-09-29T08:07:10.819Z,20.50
2022-09-29T08:10:17.389Z,21.50
2022-09-29T08:13:19.755Z,17.60
2022-09-29T08:16:21.725Z,17.50
2022-09-29T08:19:23.561Z,16.80
2022-09-29T08:22:27.860Z,15.10
2022-09-29T08:25:29.645Z,14.20
2022-09-29T08:28:32.640Z,13.10
2022-09-29T08:31:35.805Z,12.50
2022-09-29T08:34:37.595Z,11.10
2022-09-29T08:37:39.533Z,11.10
2022-09-29T08:40:41.460Z,9.80
2022-09-29T08:43:43.340Z,9.00
2022-09-29T08:46:46.529Z,9.30
2022-09-29T08:49:51.057Z,8.00
2022-09-29T08:52:57.226Z,7.40
2022-09-29T08:56:00.829Z,7.60
2022-09-29T08:59:02.741Z,5.90
2022-09-29T09:02:14.112Z,5.60
2022-09-29T09:05:24.856Z,5.10
2022-09-29T09:08:32.960Z,5.30
2022-09-29T09:11:34.885Z,4.60
2022-09-29T09:14:44.319Z,3.60
2022-09-29T09:18:05.005Z,2.80
2022-09-29T09:21:08.500Z,2.20
2022-09-29T09:24:37.084Z,2.30
2022-09-29T09:27:40.673Z,1.00
2022-09-29T09:30:44.575Z,1.20
2022-09-29T09:34:00.867Z,1.00
2022-09-29T09:37:08.433Z,1.00
2022-09-29T09:40:15.039Z,1.00
2022-09-29T09:43:19.991Z,1.00
2022-09-29T09:46:24.811Z,1.00
2022-09-29T09:49:26.613Z,1.00
2022-09-29T09:52:33.727Z,1.00
2022-09-29T09:55:37.073Z,1.00
2022-09-29T09:58:44.455Z,1.00
2022-09-29T10:01:46.329Z,1.00
2022-09-29T10:04:48.772Z,1.00
2022-09-29T10:07:50.660Z,1.00
2022-09-29T10:10:58.520Z,1.00
2022-09-29T10:14:02.622Z,1.00
2022-09-29T10:17:07.275Z,1.00
2022-09-29T10:20:09.293Z,1.00
2022-09-29T10:23:20.924Z,1.60
2022-09-29T10:26:36.407Z,4.40
2022-09-29T10:29:38.742Z,7.00
2022-09-29T10:32:40.512Z,7.30
2022-09-29T10:35:42.952Z,8.50
2022-09-29T10:38:46.168Z,9.40
2022-09-29T10:41:50.138Z,9.30
2022-09-29T10:44:53.211Z,10.30
2022-09-29T10:47:58.133Z,11.00
2022-09-29T10:51:03.831Z,10.30
2022-09-29T10:54:09.231Z,9.90
2022-09-29T10:57:12.512Z,9.90
2022-09-29T11:00:32.087Z,10.70
2022-09-29T11:03:35.378Z,9.50
2022-09-29T11:06:42.957Z,8.50
2022-09-29T11:09:45.817Z,9.80
2022-09-29T11:12:49.199Z,9.90
2022-09-29T11:15:50.984Z,12.60
2022-09-29T11:18:53.875Z,12.60
2022-09-29T11:21:59.065Z,14.00
2022-09-29T11:25:13.140Z,12.70
2022-09-29T11:28:14.913Z,13.10
2022-09-29T11:31:19.678Z,13.30
2022-09-29T11:34:40.459Z,14.30
2022-09-29T11:38:00.917Z,13.60
2022-09-29T11:41:23.941Z,13.90
2022-09-29T11:44:37.225Z,13.20
2022-09-29T11:47:42.068Z,12.30
2022-09-29T11:51:10.224Z,12.50
2022-09-29T11:54:15.608Z,13.70
2022-09-29T11:57:19.411Z,13.00
2022-09-29T12:00:21.981Z,11.30
2022-09-29T12:03:37.105Z,12.00
2022-09-29T12:06:38.905Z,9.80
2022-09-29T12:09:55.811Z,8.50
2022-09-29T12:13:03.631Z,8.10
2022-09-29T12:16:15.381Z,10.00
2022-09-29T12:19:18.322Z,7.90
2022-09-29T12:22:20.127Z,9.30
2022-09-29T12:25:25.064Z,8.00
2022-09-29T12:28:50.614Z,7.80
2022-09-29T12:31:55.069Z,6.70
2022-09-29T12:35:01.786Z,6.50
2022-09-29T12:38:09.392Z,8.70
2022-09-29T12:41:13.977Z,8.60
2022-09-29T12:44:21.303Z,5.50
2022-09-29T12:47:26.184Z,5.50
2022-09-29T12:50:29.074Z,6.40
2022-09-29T12:53:43.260Z,7.20
2022-09-29T12:56:45.029Z,7.50
2022-09-29T12:59:55.598Z,10.80
2022-09-29T13:03:14.899Z,11.60
2022-09-29T13:06:21.895Z,10.70
2022-09-29T13:09:34.425Z,8.30
2022-09-29T13:12:36.242Z,11.80
2022-09-29T13:15:47.664Z,11.40
2022-09-29T13:19:06.614Z,13.40
2022-09-29T13:22:16.278Z,12.50
2022-09-29T13:25:21.451Z,13.10
2022-09-29T13:28:25.396Z,11.10
2022-09-29T13:31:33.193Z,13.70
2022-09-29T13:34:35.511Z,12.30
2022-09-29T13:37:44.490Z,10.50
2022-09-29T13:41:05.056Z,9.70
2022-09-29T13:44:19.615Z,8.80
2022-09-29T13:47:31.804Z,7.90
2022-09-29T13:50:43.856Z,7.20
2022-09-29T13:53:45.700Z,8.80
2022-09-29T13:56:59.875Z,7.60
2022-09-29T14:00:02.827Z,11.80
2022-09-29T14:03:22.923Z,9.70
2022-09-29T14:06:41.658Z,9.30
2022-09-29T14:09:46.682Z,8.90
2022-09-29T14:12:51.570Z,9.80
2022-09-29T14:16:06.082Z,8.40
2022-09-29T14:19:16.769Z,5.90
2022-09-29T14:22:30.823Z,7.00
2022-09-29T14:25:36.243Z,7.30
2022-09-29T14:28:39.364Z,7.60
2022-09-29T14:31:41.213Z,9.00
2022-09-29T14:34:43.224Z,7.40
2022-09-29T14:37:45.437Z,10.20
2022-09-29T14:40:56.661Z,6.70
2022-09-29T14:44:02.784Z,3.80
2022-09-29T14:47:43.329Z,3.20
2022-09-29T14:51:17.473Z,4.00
2022-09-29T14:54:43.249Z,6.10
2022-09-29T14:57:52.625Z,8.40
2022-09-29T15:01:00.879Z,4.80
2022-09-29T15:04:06.812Z,6.00
2022-09-29T15:07:12.403Z,4.70
2022-09-29T15:10:22.358Z,3.70
2022-09-29T15:13:27.837Z,5.20
2022-09-29T15:16:33.065Z,4.40
2022-09-29T15:19:55.803Z,4.50
2022-09-29T15:23:06.987Z,5.40
2022-09-29T15:26:11.780Z,5.40
2022-09-29T15:29:15.907Z,3.80
2022-09-29T15:32:37.926Z,4.30
2022-09-29T15:35:41.118Z,4.70
2022-09-29T15:38:42.897Z,5.70
2022-09-29T15:41:45.232Z,6.20
2022-09-29T15:44:47.849Z,7.40
2022-09-29T15:47:50.183Z,6.70
2022-09-29T15:50:52.457Z,6.10
2022-09-29T15:53:56.086Z,5.90
2022-09-29T15:57:16.716Z,6.00
2022-09-29T16:00:21.527Z,6.00
2022-09-29T16:03:24.324Z,3.80
2022-09-29T16:06:30.247Z,5.80
2022-09-29T16:09:32.150Z,6.90
2022-09-29T16:12:35.535Z,4.40
2022-09-29T16:15:47.058Z,5.90
2022-09-29T16:18:49.218Z,6.30
2022-09-29T16:21:51.608Z,6.80
2022-09-29T16:24:54.962Z,6.70
2022-09-29T16:27:57.477Z,5.50
2022-09-29T16:31:19.014Z,5.40
2022-09-29T16:34:20.870Z,5.30
2022-09-29T16:37:22.848Z,6.50
2022-09-29T16:40:25.831Z,7.10
2022-09-29T16:43:31.392Z,7.40
2022-09-29T16:46:33.268Z,7.40
2022-09-29T16:49:44.115Z,8.70
2022-09-29T16:52:46.636Z,8.30
2022-09-29T16:56:06.180Z,8.60
2022-09-29T16:59:11.947Z,8.20
2022-09-29T17:02:13.867Z,9.40
2022-09-29T17:05:16.052Z,8.60
2022-09-29T17:08:27.753Z,11.00
2022-09-29T17:11:29.555Z,10.80
2022-09-29T17:14:31.930Z,12.20
2022-09-29T17:17:34.452Z,13.60
2022-09-29T17:20:36.209Z,14.20
2022-09-29T17:23:37.989Z,13.90
2022-09-29T17:27:02.445Z,16.80
2022-09-29T17:30:04.646Z,19.00
2022-09-29T17:33:07.648Z,21.90
2022-09-29T17:36:10.743Z,25.10
2022-09-29T17:39:14.812Z,27.50
2022-09-29T17:42:17.625Z,30.30
2022-09-29T17:45:19.829Z,32.20
2022-09-29T17:48:21.716Z,29.50
2022-09-29T17:51:23.535Z,28.90
2022-09-29T17:54:27.263Z,28.10
2022-09-29T17:57:29.167Z,28.00
2022-09-29T18:00:39.803Z,30.10
2022-09-29T18:03:42.335Z,31.40
2022-09-29T18:06:44.600Z,32.40
2022-09-29T18:09:47.328Z,33.70
2022-09-29T18:12:49.207Z,35.60
2022-09-29T18:15:51.099Z,37.80
2022-09-29T18:18:58.022Z,37.60
2022-09-29T18:22:01.348Z,39.40
2022-09-29T18:25:03.329Z,39.80
2022-09-29T18:28:05.141Z,42.20
2022-09-29T18:31:12.460Z,43.60
2022-09-29T18:34:18.221Z,50.40
2022-09-29T18:37:20.121Z,51.10
2022-09-29T18:40:24.667Z,50.30
2022-09-29T18:43:27.462Z,51.40
2022-09-29T18:46:30.959Z,50.20
2022-09-29T18:49:32.847Z,50.40
2022-09-29T18:52:34.931Z,49.10
2022-09-29T18:55:36.717Z,47.90
2022-09-29T18:58:38.496Z,47.90
2022-09-29T19:01:40.475Z,47.70
2022-09-29T19:04:42.356Z,47.60
2022-09-29T19:07:44.801Z,49.60
2022-09-29T19:10:53.974Z,54.40
2022-09-29T19:13:56.304Z,55.50
2022-09-29T19:16:58.076Z,56.70
2022-09-29T19:20:00.577Z,59.40
2022-09-29T19:23:03.087Z,61.40
2022-09-29T19:26:08.662Z,60.40
2022-09-29T19:29:11.023Z,58.10
2022-09-29T19:32:13.267Z,56.90
2022-09-29T19:35:15.970Z,55.00
2022-09-29T19:38:17.842Z,55.50
2022-09-29T19:41:21.509Z,52.30
2022-09-29T19:44:23.283Z,51.40
2022-09-29T19:47:25.180Z,53.60
2022-09-29T19:50:45.713Z,54.40
2022-09-29T19:53:49.550Z,56.60
2022-09-29T19:56:55.736Z,53.80
2022-09-29T19:59:58.829Z,54.90
2022-09-29T20:03:01.138Z,54.60
2022-09-29T20:06:04.888Z,54.70
2022-09-29T20:09:09.442Z,54.50
2022-09-29T20:12:14.796Z,54.90
2022-09-29T20:15:21.615Z,54.80
2022-09-29T20:18:23.387Z,55.50
2022-09-29T20:21:25.204Z,56.90
2022-09-29T20:24:27.303Z,57.60
2022-09-29T20:27:29.123Z,57.60
2022-09-29T20:30:31.784Z,59.90
2022-09-29T20:33:33.984Z,59.40
2022-09-29T20:36:35.795Z,59.40
2022-09-29T20:39:37.591Z,59.50
2022-09-29T20:42:39.384Z,59.40
2022-09-29T20:45:41.452Z,59.40
2022-09-29T20:48:44.069Z,59.90
2022-09-29T20:51:45.857Z,59.50
2022-09-29T20:54:48.301Z,59.50
2022-09-29T20:57:55.560Z,59.50
2022-09-29T21:01:10.251Z,58.30
2022-09-29T21:04:12.919Z,56.80
2022-09-29T21:07:44.006Z,56.30
2022-09-29T21:10:45.789Z,54.60
2022-09-29T21:13:47.963Z,54.90
2022-09-29T21:16:51.392Z,55.90
2022-09-29T21:19:53.349Z,55.30
2022-09-29T21:22:55.157Z,57.80
2022-09-29T21:26:14.152Z,57.00
2022-09-29T21:29:17.095Z,57.50
2022-09-29T21:32:18.897Z,57.00
2022-09-29T21:35:20.749Z,58.60
2022-09-29T21:38:22.548Z,57.60
2022-09-29T21:41:28.333Z,56.70
2022-09-29T21:44:30.132Z,55.90
2022-09-29T21:47:50.571Z,56.90
2022-09-29T21:50:53.520Z,55.40
2022-09-29T21:53:57.668Z,54.80
2022-09-29T21:56:59.484Z,54.50
2022-09-29T22:00:01.491Z,55.00
2022-09-29T22:03:03.662Z,55.50
2022-09-29T22:06:07.875Z,54.30
2022-09-29T22:09:14.335Z,53.90
2022-09-29T22:12:16.682Z,54.20
2022-09-29T22:15:18.457Z,53.50
2022-09-29T22:18:21.267Z,53.70
2022-09-29T22:21:23.405Z,53.30
2022-09-29T22:24:27.449Z,52.20
2022-09-29T22:27:29.266Z,51.90
2022-09-29T22:30:31.088Z,52.10
2022-09-29T22:33:33.788Z,50.80
2022-09-29T22:36:36.161Z,50.60
2022-09-29T22:39:38.162Z,50.10
2022-09-29T22:42:40.199Z,50.10
2022-09-29T22:45:41.966Z,51.00
2022-09-29T22:48:43.742Z,51.10
2022-09-29T22:51:45.686Z,51.00
2022-09-29T22:54:47.825Z,53.20
2022-09-29T22:57:49.588Z,51.40
2022-09-29T23:01:00.328Z,53.40
2022-09-29T23:04:04.090Z,55.40
2022-09-29T23:07:06.909Z,55.30
2022-09-29T23:10:11.376Z,56.00
2022-09-29T23:13:13.171Z,57.60
2022-09-29T23:16:15.581Z,58.50
2022-09-29T23:19:17.498Z,59.80
2022-09-29T23:22:19.324Z,60.30
2022-09-29T23:25:21.234Z,61.10
2022-09-29T23:28:23.063Z,64.30
2022-09-29T23:31:25.002Z,64.70
2022-09-29T23:34:27.540Z,63.90
2022-09-29T23:37:49.255Z,65.10
2022-09-29T23:40:52.832Z,67.10
2022-09-29T23:43:57.577Z,68.10
2022-09-29T23:46:59.527Z,68.00
2022-09-29T23:50:02.614Z,70.60
2022-09-29T23:53:04.987Z,72.20
2022-09-29T23:56:06.854Z,73.20
2022-09-29T23:59:09.677Z,76.10
